Time;durP1;ratioP1;P1;durP2;ratioP2;P2;SDS_P1;SDS_P2;PMS_P1;PMS_P2;Temp;Humidity;BMP_temperature;BMP_pressure;BME280_temperature;BME280_humidity;BME280_pressure;Samples;Min_cycle;Max_cycle;Signal;HPM_P1;HPM_P2
2023/04/30 00:00:09;;;;;;;6.90;6.20;;;;;;;;;;4993438;28;20199;-86
2023/04/30 00:02:37;;;;;;;7.78;6.53;;;;;;;;;;4993536;28;20207;-86
2023/04/30 00:05:05;;;;;;;7.13;6.47;;;;;;;;;;4992822;28;20310;-87
2023/04/30 00:07:32;;;;;;;7.03;6.32;;;;;;;;;;4993721;28;20294;-87
2023/04/30 00:10:00;;;;;;;6.50;5.90;;;;;;;;;;4993489;28;20247;-87
2023/04/30 00:12:27;;;;;;;6.15;5.00;;;;;;;;;;4993893;28;20707;-87
2023/04/30 00:14:55;;;;;;;19.95;15.05;;;;;;;;;;4993721;28;20258;-85
2023/04/30 00:17:24;;;;;;;20.73;17.45;;;;;;;;;;5004551;28;20223;-86
2023/04/30 00:19:51;;;;;;;10.80;8.38;;;;;;;;;;5013156;28;20297;-86
2023/04/30 00:22:19;;;;;;;6.90;5.75;;;;;;;;;;5013177;28;20283;-87
2023/04/30 00:24:46;;;;;;;7.20;5.70;;;;;;;;;;5013345;28;20310;-85
2023/04/30 00:27:14;;;;;;;7.20;5.85;;;;;;;;;;5013095;28;20242;-87
2023/04/30 00:29:41;;;;;;;6.28;5.68;;;;;;;;;;5012858;28;20227;-87
2023/04/30 00:32:09;;;;;;;5.97;5.38;;;;;;;;;;5012664;28;20242;-87
2023/04/30 00:34:38;;;;;;;6.75;6.05;;;;;;;;;;5012829;28;20236;-87
2023/04/30 00:37:05;;;;;;;6.40;5.22;;;;;;;;;;5013145;28;20238;-86
2023/04/30 00:39:33;;;;;;;6.30;5.70;;;;;;;;;;5012724;28;20289;-87
2023/04/30 00:42:01;;;;;;;5.70;5.20;;;;;;;;;;5012810;28;20660;-87
2023/04/30 00:44:28;;;;;;;5.35;4.85;;;;;;;;;;5012683;28;20219;-87
2023/04/30 00:46:56;;;;;;;5.20;4.70;;;;;;;;;;5012450;28;20642;-87
2023/04/30 00:49:23;;;;;;;5.50;5.00;;;;;;;;;;5012605;28;20217;-87
2023/04/30 00:51:53;;;;;;;8.32;5.38;;;;;;;;;;5012736;28;20231;-87
2023/04/30 00:54:21;;;;;;;5.93;5.10;;;;;;;;;;5012354;28;20317;-86
2023/04/30 00:56:49;;;;;;;6.72;5.47;;;;;;;;;;5012377;28;20294;-87
2023/04/30 00:59:16;;;;;;;5.25;4.63;;;;;;;;;;5012130;28;20598;-86
2023/04/30 01:01:44;;;;;;;4.68;4.28;;;;;;;;;;5012275;28;20207;-87
2023/04/30 01:04:12;;;;;;;5.28;4.78;;;;;;;;;;5012577;28;20199;-87
2023/04/30 01:06:40;;;;;;;5.95;5.00;;;;;;;;;;5012479;28;20230;-87
2023/04/30 01:09:09;;;;;;;5.00;4.43;;;;;;;;;;5012354;28;20207;-87
2023/04/30 01:11:48;;;;;;;4.93;4.43;;;;;;;;;;5012789;28;20553;-86
2023/04/30 01:14:26;;;;;;;5.60;4.82;;;;;;;;;;5012595;28;20232;-86
2023/04/30 01:17:03;;;;;;;5.32;4.78;;;;;;;;;;5013404;28;20213;-87
2023/04/30 01:19:38;;;;;;;5.68;4.60;;;;;;;;;;5016223;28;20193;-87
2023/04/30 01:22:06;;;;;;;5.22;4.47;;;;;;;;;;5016290;28;20187;-87
2023/04/30 01:24:54;;;;;;;5.10;4.68;;;;;;;;;;5016486;28;20668;-87
2023/04/30 01:27:32;;;;;;;5.07;4.57;;;;;;;;;;5016134;28;20190;-87
2023/04/30 01:30:03;;;;;;;6.03;5.10;;;;;;;;;;5015688;28;20315;-87
2023/04/30 01:32:30;;;;;;;6.22;5.28;;;;;;;;;;5016236;28;20199;-87
2023/04/30 01:34:58;;;;;;;6.38;4.85;;;;;;;;;;5015568;28;20223;-87
2023/04/30 01:37:35;;;;;;;5.93;4.53;;;;;;;;;;5016016;28;20203;-87
2023/04/30 01:40:18;;;;;;;7.72;5.15;;;;;;;;;;5015950;28;20214;-87
2023/04/30 01:42:55;;;;;;;4.80;4.40;;;;;;;;;;5015446;28;20301;-87
2023/04/30 01:45:39;;;;;;;6.60;5.18;;;;;;;;;;5015623;28;20627;-87
2023/04/30 01:48:18;;;;;;;5.15;4.65;;;;;;;;;;5015728;28;20565;-87
2023/04/30 01:50:52;;;;;;;5.55;5.05;;;;;;;;;;4996157;28;20207;-86
2023/04/30 01:53:23;;;;;;;6.40;4.70;;;;;;;;;;4995988;28;20227;-87
2023/04/30 01:55:56;;;;;;;5.45;4.95;;;;;;;;;;4995606;28;20228;-86
2023/04/30 01:58:25;;;;;;;6.18;5.47;;;;;;;;;;4995753;28;20566;-86
2023/04/30 02:00:53;;;;;;;5.03;4.45;;;;;;;;;;4995783;28;20239;-87
2023/04/30 02:03:21;;;;;;;5.78;5.18;;;;;;;;;;4996087;28;20200;-87
2023/04/30 02:05:50;;;;;;;6.38;5.78;;;;;;;;;;4995727;28;20230;-86
2023/04/30 02:08:18;;;;;;;5.40;4.90;;;;;;;;;;4995501;28;20210;-87
2023/04/30 02:10:45;;;;;;;5.10;4.70;;;;;;;;;;4995613;28;20207;-86
2023/04/30 02:13:13;;;;;;;6.95;5.25;;;;;;;;;;4995481;28;20645;-88
2023/04/30 02:15:40;;;;;;;5.30;4.80;;;;;;;;;;4995023;28;20228;-86
2023/04/30 02:18:09;;;;;;;6.22;5.63;;;;;;;;;;5012501;28;20293;-87
2023/04/30 02:20:37;;;;;;;5.95;5.40;;;;;;;;;;5015039;28;20613;-87
2023/04/30 02:23:04;;;;;;;6.03;5.43;;;;;;;;;;5015323;28;20238;-87
2023/04/30 02:25:36;;;;;;;5.15;4.65;;;;;;;;;;5014353;28;20310;-87
2023/04/30 02:28:04;;;;;;;6.13;5.53;;;;;;;;;;5014489;28;20601;-87
2023/04/30 02:30:32;;;;;;;5.72;5.07;;;;;;;;;;5014650;28;20199;-87
2023/04/30 02:32:59;;;;;;;6.20;5.10;;;;;;;;;;5014413;28;20286;-86
2023/04/30 02:35:28;;;;;;;5.72;5.22;;;;;;;;;;5014682;28;20318;-86
2023/04/30 02:37:56;;;;;;;5.43;4.88;;;;;;;;;;5014731;28;20302;-87
2023/04/30 02:40:23;;;;;;;4.88;4.40;;;;;;;;;;5014821;28;20210;-87
2023/04/30 02:42:52;;;;;;;4.75;4.28;;;;;;;;;;5015123;28;20290;-86
2023/04/30 02:45:20;;;;;;;4.82;4.38;;;;;;;;;;5014728;28;20710;-87
2023/04/30 02:47:47;;;;;;;6.03;5.30;;;;;;;;;;4999971;28;20208;-87
2023/04/30 02:50:15;;;;;;;6.47;5.18;;;;;;;;;;5011265;28;20205;-87
2023/04/30 02:52:45;;;;;;;6.20;5.43;;;;;;;;;;5014532;28;20744;-86
2023/04/30 02:55:13;;;;;;;6.63;5.93;;;;;;;;;;5014712;28;20261;-87
2023/04/30 02:57:41;;;;;;;5.93;5.43;;;;;;;;;;5014356;28;20214;-86
2023/04/30 03:00:10;;;;;;;7.72;5.38;;;;;;;;;;5013967;28;20563;-86
2023/04/30 03:02:37;;;;;;;5.10;4.50;;;;;;;;;;5014428;28;20210;-87
2023/04/30 03:05:06;;;;;;;6.60;5.40;;;;;;;;;;5014374;28;20284;-86
2023/04/30 03:07:33;;;;;;;6.50;5.88;;;;;;;;;;5014130;28;20278;-87
2023/04/30 03:10:02;;;;;;;6.28;5.40;;;;;;;;;;5014158;28;20205;-86
2023/04/30 03:12:30;;;;;;;6.25;5.65;;;;;;;;;;5014207;28;20556;-87
2023/04/30 03:14:57;;;;;;;5.72;5.22;;;;;;;;;;5013885;28;20314;-86
2023/04/30 03:17:25;;;;;;;6.63;5.72;;;;;;;;;;5014077;28;20306;-86
2023/04/30 03:19:52;;;;;;;5.95;5.32;;;;;;;;;;5013861;28;20239;-87
2023/04/30 03:22:22;;;;;;;7.10;6.13;;;;;;;;;;5014028;28;20242;-86
2023/04/30 03:24:50;;;;;;;6.32;5.55;;;;;;;;;;5014111;28;20227;-87
2023/04/30 03:27:18;;;;;;;6.15;5.53;;;;;;;;;;5013837;28;20289;-86
2023/04/30 03:29:46;;;;;;;6.82;6.13;;;;;;;;;;5013623;28;20669;-87
2023/04/30 03:32:13;;;;;;;6.32;5.72;;;;;;;;;;5013810;28;20673;-87
2023/04/30 03:34:41;;;;;;;5.88;5.38;;;;;;;;;;5013788;28;20310;-86
2023/04/30 03:37:08;;;;;;;5.82;5.22;;;;;;;;;;5013645;28;20602;-86
2023/04/30 03:39:36;;;;;;;5.90;5.35;;;;;;;;;;5012761;28;20581;-86
2023/04/30 03:42:03;;;;;;;5.78;5.28;;;;;;;;;;5013062;28;20207;-87
2023/04/30 03:44:32;;;;;;;7.68;5.45;;;;;;;;;;5013766;28;20227;-87
2023/04/30 03:47:00;;;;;;;7.55;6.72;;;;;;;;;;5013705;28;20207;-87
2023/04/30 03:49:27;;;;;;;6.80;5.55;;;;;;;;;;5013400;28;20671;-87
2023/04/30 03:51:55;;;;;;;7.65;5.32;;;;;;;;;;5013826;28;20231;-86
2023/04/30 03:54:22;;;;;;;7.28;5.50;;;;;;;;;;5013393;28;20233;-86
2023/04/30 03:56:50;;;;;;;6.82;6.00;;;;;;;;;;5013113;28;20219;-86
2023/04/30 03:59:18;;;;;;;7.00;6.35;;;;;;;;;;5013171;28;20684;-87
2023/04/30 04:01:46;;;;;;;7.10;6.40;;;;;;;;;;5013242;28;20293;-87
2023/04/30 04:04:14;;;;;;;9.32;6.93;;;;;;;;;;5013834;28;20203;-86
2023/04/30 04:06:42;;;;;;;7.75;6.57;;;;;;;;;;5013248;28;20245;-87
2023/04/30 04:09:10;;;;;;;7.25;6.55;;;;;;;;;;5013421;28;20231;-87
2023/04/30 04:11:37;;;;;;;7.10;6.40;;;;;;;;;;5013562;28;20195;-87
2023/04/30 04:14:05;;;;;;;7.97;7.18;;;;;;;;;;5013083;28;20207;-86
2023/04/30 04:16:32;;;;;;;8.00;6.68;;;;;;;;;;5012865;28;20318;-86
2023/04/30 04:19:01;;;;;;;8.35;6.75;;;;;;;;;;5013145;28;20203;-87
2023/04/30 04:21:30;;;;;;;7.18;6.47;;;;;;;;;;5012980;28;20241;-86
2023/04/30 04:23:57;;;;;;;7.20;6.35;;;;;;;;;;5013457;28;20202;-86
2023/04/30 04:26:25;;;;;;;8.15;6.30;;;;;;;;;;5012751;28;20241;-86
2023/04/30 04:28:52;;;;;;;7.65;6.75;;;;;;;;;;5013171;28;20285;-86
2023/04/30 04:31:21;;;;;;;7.97;7.18;;;;;;;;;;5012648;28;20728;-86
2023/04/30 04:33:48;;;;;;;7.47;6.70;;;;;;;;;;5012733;28;20203;-87
2023/04/30 04:36:17;;;;;;;7.60;6.90;;;;;;;;;;5012861;28;20231;-86
2023/04/30 04:38:45;;;;;;;7.55;6.85;;;;;;;;;;5013252;28;20558;-86
2023/04/30 04:41:13;;;;;;;8.10;7.32;;;;;;;;;;5012905;28;20630;-87
2023/04/30 04:43:41;;;;;;;6.47;5.88;;;;;;;;;;5012708;28;20285;-87
2023/04/30 04:46:09;;;;;;;5.35;4.85;;;;;;;;;;5012909;28;20285;-86
2023/04/30 04:48:36;;;;;;;5.03;4.55;;;;;;;;;;5009609;28;20207;-87
2023/04/30 04:51:04;;;;;;;6.20;5.60;;;;;;;;;;4994811;28;20267;-86
2023/04/30 04:53:33;;;;;;;6.97;6.15;;;;;;;;;;4997585;28;20235;-86
2023/04/30 04:56:01;;;;;;;6.80;6.20;;;;;;;;;;4997028;28;20761;-87
2023/04/30 04:58:28;;;;;;;6.47;5.70;;;;;;;;;;4996539;28;20656;-87
2023/04/30 05:00:56;;;;;;;6.47;5.88;;;;;;;;;;4997012;28;20246;-87
2023/04/30 05:03:24;;;;;;;5.68;5.18;;;;;;;;;;4997237;28;20199;-86
2023/04/30 05:05:51;;;;;;;6.63;5.95;;;;;;;;;;4997088;28;20595;-86
2023/04/30 05:08:19;;;;;;;5.35;4.85;;;;;;;;;;4996698;28;20672;-86
2023/04/30 05:10:48;;;;;;;7.20;5.50;;;;;;;;;;4997022;28;20291;-87
2023/04/30 05:13:16;;;;;;;7.35;6.00;;;;;;;;;;4996914;28;20294;-87
2023/04/30 05:15:43;;;;;;;6.90;6.30;;;;;;;;;;4996281;28;20310;-87
2023/04/30 05:18:11;;;;;;;6.57;5.97;;;;;;;;;;5013911;28;20227;-86
2023/04/30 05:20:38;;;;;;;5.78;5.25;;;;;;;;;;4996824;28;20246;-87
2023/04/30 05:23:06;;;;;;;5.18;4.78;;;;;;;;;;4996755;28;20290;-87
2023/04/30 05:25:33;;;;;;;5.80;5.00;;;;;;;;;;4996363;28;20258;-86
2023/04/30 05:28:02;;;;;;;4.57;4.20;;;;;;;;;;4996531;28;20214;-87
2023/04/30 05:30:30;;;;;;;5.80;5.30;;;;;;;;;;4996259;28;20311;-87
2023/04/30 05:32:58;;;;;;;5.55;5.03;;;;;;;;;;4996304;28;20295;-87
2023/04/30 05:35:27;;;;;;;6.35;5.75;;;;;;;;;;4996724;28;20255;-87
2023/04/30 05:37:54;;;;;;;5.63;5.07;;;;;;;;;;4996165;28;20718;-87
2023/04/30 05:40:22;;;;;;;6.50;5.78;;;;;;;;;;4996496;28;20210;-88
2023/04/30 05:42:49;;;;;;;4.80;4.38;;;;;;;;;;4997050;28;20235;-88
2023/04/30 05:45:18;;;;;;;4.88;4.47;;;;;;;;;;4996664;28;20282;-88
2023/04/30 05:47:46;;;;;;;4.63;4.22;;;;;;;;;;4996646;28;20283;-88
2023/04/30 05:50:14;;;;;;;10.77;6.10;;;;;;;;;;5013213;28;20724;-89
2023/04/30 05:52:42;;;;;;;5.07;4.63;;;;;;;;;;5016154;28;20282;-88
2023/04/30 05:55:10;;;;;;;6.18;5.68;;;;;;;;;;5015676;28;20257;-88
2023/04/30 05:57:38;;;;;;;5.30;4.88;;;;;;;;;;5015789;28;20218;-88
2023/04/30 06:00:07;;;;;;;4.15;3.75;;;;;;;;;;5016087;28;20219;-88
2023/04/30 06:02:36;;;;;;;4.70;4.30;;;;;;;;;;5015262;28;20231;-89
2023/04/30 06:05:41;;;;;;;4.90;4.45;;;;;;;;;;5015949;28;20265;-88
2023/04/30 06:08:09;;;;;;;4.28;3.88;;;;;;;;;;5015905;28;20230;-88
2023/04/30 06:10:36;;;;;;;5.40;4.90;;;;;;;;;;5016078;28;20290;-88
2023/04/30 06:13:04;;;;;;;4.70;4.30;;;;;;;;;;5016235;28;20199;-89
2023/04/30 06:15:32;;;;;;;6.22;5.32;;;;;;;;;;5015994;28;20234;-88
2023/04/30 06:18:00;;;;;;;5.93;5.32;;;;;;;;;;4999386;28;20318;-90
2023/04/30 06:20:28;;;;;;;5.72;4.47;;;;;;;;;;5014304;28;20317;-88
2023/04/30 06:22:55;;;;;;;7.07;3.85;;;;;;;;;;5015424;28;20238;-87
2023/04/30 06:25:23;;;;;;;3.75;3.00;;;;;;;;;;5015229;28;20246;-87
2023/04/30 06:27:52;;;;;;;5.22;2.67;;;;;;;;;;5015311;28;20238;-87
2023/04/30 06:30:20;;;;;;;4.32;2.53;;;;;;;;;;5016131;28;20203;-87
2023/04/30 06:32:48;;;;;;;8.30;2.70;;;;;;;;;;5015236;28;20632;-87
2023/04/30 06:35:17;;;;;;;3.28;1.92;;;;;;;;;;5015950;28;20290;-87
2023/04/30 06:37:44;;;;;;;4.07;1.77;;;;;;;;;;5018440;28;20305;-87
2023/04/30 06:40:12;;;;;;;2.70;1.50;;;;;;;;;;5015153;28;20290;-87
2023/04/30 06:42:40;;;;;;;4.20;2.17;;;;;;;;;;5018598;28;20290;-87
2023/04/30 06:45:09;;;;;;;2.17;1.95;;;;;;;;;;5033838;28;20256;-87
2023/04/30 06:47:37;;;;;;;5.43;2.05;;;;;;;;;;5034714;28;20208;-88
2023/04/30 06:50:06;;;;;;;2.17;1.67;;;;;;;;;;5034954;28;20232;-87
2023/04/30 06:52:34;;;;;;;2.80;2.25;;;;;;;;;;5027760;28;20252;-87
2023/04/30 06:55:02;;;;;;;2.50;1.67;;;;;;;;;;5028242;28;20658;-87
2023/04/30 06:57:30;;;;;;;2.17;1.50;;;;;;;;;;5031962;28;20313;-87
2023/04/30 06:59:58;;;;;;;2.25;1.55;;;;;;;;;;5034243;28;20178;-87
2023/04/30 07:02:27;;;;;;;2.22;1.70;;;;;;;;;;5034060;28;20281;-88
2023/04/30 07:04:55;;;;;;;4.22;1.30;;;;;;;;;;5034785;28;20261;-88
2023/04/30 07:07:22;;;;;;;1.75;1.33;;;;;;;;;;5034304;28;20252;-88
2023/04/30 07:09:52;;;;;;;2.33;1.67;;;;;;;;;;5033853;28;20210;-87
2023/04/30 07:12:20;;;;;;;3.47;1.98;;;;;;;;;;5034019;28;20266;-88
2023/04/30 07:14:47;;;;;;;2.53;1.90;;;;;;;;;;5034246;28;20276;-88
2023/04/30 07:17:15;;;;;;;2.30;2.13;;;;;;;;;;5023660;28;20298;-88
2023/04/30 07:19:42;;;;;;;4.50;2.00;;;;;;;;;;5014468;28;20214;-89
2023/04/30 07:22:10;;;;;;;3.00;1.77;;;;;;;;;;5014266;28;20230;-88
2023/04/30 07:24:37;;;;;;;4.45;2.30;;;;;;;;;;5014019;28;20273;-88
2023/04/30 07:27:06;;;;;;;2.72;2.00;;;;;;;;;;5014076;28;20269;-88
2023/04/30 07:29:34;;;;;;;1.50;1.40;;;;;;;;;;5014207;28;20286;-87
2023/04/30 07:32:02;;;;;;;1.85;1.50;;;;;;;;;;5014183;28;20265;-87
2023/04/30 07:34:30;;;;;;;4.47;1.70;;;;;;;;;;5013992;28;20699;-89
2023/04/30 07:36:57;;;;;;;4.20;1.80;;;;;;;;;;5013961;28;20222;-88
2023/04/30 07:39:25;;;;;;;3.55;1.60;;;;;;;;;;5013746;28;20226;-87
2023/04/30 07:41:53;;;;;;;1.27;1.27;;;;;;;;;;5013907;28;20195;-88
2023/04/30 07:44:21;;;;;;;3.13;1.65;;;;;;;;;;5013881;28;20227;-88
2023/04/30 07:46:49;;;;;;;4.57;1.90;;;;;;;;;;5013871;28;20231;-88
2023/04/30 07:49:17;;;;;;;2.90;1.80;;;;;;;;;;5013347;28;20252;-88
2023/04/30 07:51:44;;;;;;;3.45;1.55;;;;;;;;;;5013568;28;20230;-89
2023/04/30 07:54:12;;;;;;;1.30;1.20;;;;;;;;;;5013586;28;20672;-88
2023/04/30 07:56:40;;;;;;;3.10;1.30;;;;;;;;;;5013687;28;20313;-88
2023/04/30 07:59:08;;;;;;;4.72;1.63;;;;;;;;;;5012723;28;20223;-87
2023/04/30 08:01:37;;;;;;;2.88;1.20;;;;;;;;;;5013550;28;20199;-87
2023/04/30 08:04:05;;;;;;;3.28;1.80;;;;;;;;;;5013246;28;20294;-88
2023/04/30 08:06:33;;;;;;;3.08;2.03;;;;;;;;;;5013546;28;20270;-88
2023/04/30 08:09:00;;;;;;;3.15;1.92;;;;;;;;;;5013736;28;20237;-88
2023/04/30 08:11:28;;;;;;;2.15;1.73;;;;;;;;;;5013376;28;20254;-88
2023/04/30 08:13:55;;;;;;;3.80;2.17;;;;;;;;;;5013831;28;20250;-89
2023/04/30 08:16:23;;;;;;;1.77;1.45;;;;;;;;;;5016396;28;20584;-88
2023/04/30 08:18:52;;;;;;;2.90;1.50;;;;;;;;;;5012863;28;20246;-88
2023/04/30 08:21:19;;;;;;;1.42;1.20;;;;;;;;;;5013035;28;20290;-88
2023/04/30 08:23:47;;;;;;;2.70;1.70;;;;;;;;;;5013124;28;20195;-88
2023/04/30 08:26:14;;;;;;;2.83;1.67;;;;;;;;;;5012741;28;20722;-87
2023/04/30 08:28:42;;;;;;;2.15;1.88;;;;;;;;;;5013228;28;20294;-89
2023/04/30 08:31:09;;;;;;;2.75;1.52;;;;;;;;;;5013832;28;20234;-89
2023/04/30 08:33:37;;;;;;;2.30;1.65;;;;;;;;;;5012874;28;20234;-87
2023/04/30 08:36:06;;;;;;;1.42;1.33;;;;;;;;;;5013502;28;20286;-88
2023/04/30 08:38:34;;;;;;;1.50;1.40;;;;;;;;;;5006266;28;20227;-88
2023/04/30 08:41:12;;;;;;;4.30;1.67;;;;;;;;;;4993983;28;20207;-87
2023/04/30 08:43:40;;;;;;;1.52;1.23;;;;;;;;;;4994450;28;20234;-88
2023/04/30 08:46:08;;;;;;;1.35;1.08;;;;;;;;;;4994668;28;20238;-88
2023/04/30 08:48:36;;;;;;;1.05;1.00;;;;;;;;;;5012711;28;20230;-88
2023/04/30 08:51:05;;;;;;;1.30;1.10;;;;;;;;;;5012590;28;20298;-87
2023/04/30 08:53:37;;;;;;;1.70;1.38;;;;;;;;;;5012765;28;20282;-88
2023/04/30 08:56:05;;;;;;;3.92;1.50;;;;;;;;;;5012897;28;20246;-88
2023/04/30 08:58:33;;;;;;;1.65;1.23;;;;;;;;;;5012457;28;20294;-88
2023/04/30 09:01:00;;;;;;;3.92;1.58;;;;;;;;;;5012880;28;20207;-89
2023/04/30 09:03:29;;;;;;;1.63;1.17;;;;;;;;;;5013008;28;20286;-88
2023/04/30 09:05:57;;;;;;;4.40;2.40;;;;;;;;;;5012829;28;20574;-88
2023/04/30 09:08:45;;;;;;;3.80;1.63;;;;;;;;;;5012701;28;20590;-87
2023/04/30 09:11:24;;;;;;;4.25;1.75;;;;;;;;;;5012460;28;20199;-88
2023/04/30 09:13:53;;;;;;;2.40;1.50;;;;;;;;;;5012605;28;20225;-87
2023/04/30 09:16:22;;;;;;;1.65;1.20;;;;;;;;;;5012396;28;20222;-88
2023/04/30 09:18:49;;;;;;;5.82;1.85;;;;;;;;;;5012328;28;20647;-89
2023/04/30 09:21:18;;;;;;;1.40;1.30;;;;;;;;;;5012705;28;20671;-88
2023/04/30 09:24:00;;;;;;;1.38;1.27;;;;;;;;;;5012446;28;20201;-88
2023/04/30 09:26:33;;;;;;;2.30;2.10;;;;;;;;;;5012659;28;20213;-88
2023/04/30 09:29:06;;;;;;;2.53;1.40;;;;;;;;;;5012594;28;20199;-88
2023/04/30 09:31:34;;;;;;;1.30;1.20;;;;;;;;;;5013004;28;20616;-88
2023/04/30 09:34:02;;;;;;;0.80;0.80;;;;;;;;;;5012811;28;20233;-88
2023/04/30 09:36:30;;;;;;;1.85;1.10;;;;;;;;;;5012540;28;20230;-87
2023/04/30 09:39:07;;;;;;;1.52;0.95;;;;;;;;;;5015134;28;20561;-88
2023/04/30 09:41:36;;;;;;;2.15;1.10;;;;;;;;;;5015978;28;20712;-88
2023/04/30 09:44:03;;;;;;;1.10;1.00;;;;;;;;;;5015452;28;20285;-88
2023/04/30 09:46:33;;;;;;;1.15;1.10;;;;;;;;;;5015593;28;20301;-88
2023/04/30 09:49:02;;;;;;;0.80;0.80;;;;;;;;;;5015865;28;20205;-88
2023/04/30 09:51:31;;;;;;;3.20;1.40;;;;;;;;;;5016332;28;20660;-89
2023/04/30 09:54:04;;;;;;;3.20;1.35;;;;;;;;;;5015510;28;20246;-88
2023/04/30 09:56:34;;;;;;;2.25;1.20;;;;;;;;;;5015720;28;20652;-89
2023/04/30 09:59:03;;;;;;;1.42;1.33;;;;;;;;;;5014884;28;20310;-90
2023/04/30 10:01:31;;;;;;;1.55;1.45;;;;;;;;;;5016143;28;20295;-89
2023/04/30 10:03:58;;;;;;;1.33;1.23;;;;;;;;;;5015853;28;20276;-88
2023/04/30 10:06:28;;;;;;;1.45;1.15;;;;;;;;;;5015562;28;20623;-89
2023/04/30 10:09:00;;;;;;;3.17;1.38;;;;;;;;;;5015495;28;20254;-87
2023/04/30 10:11:29;;;;;;;1.20;1.10;;;;;;;;;;5015703;28;20555;-88
2023/04/30 10:14:03;;;;;;;1.63;1.48;;;;;;;;;;5015216;28;20199;-89
2023/04/30 10:16:39;;;;;;;1.98;1.38;;;;;;;;;;5015999;28;20767;-89
2023/04/30 10:19:14;;;;;;;3.25;1.40;;;;;;;;;;5015197;28;20206;-89
2023/04/30 10:21:43;;;;;;;1.98;1.50;;;;;;;;;;5015797;28;20722;-88
2023/04/30 10:24:14;;;;;;;1.17;1.08;;;;;;;;;;5015337;28;20285;-89
2023/04/30 10:26:42;;;;;;;1.05;0.85;;;;;;;;;;5015290;28;20207;-88
2023/04/30 10:29:10;;;;;;;1.17;1.05;;;;;;;;;;5015065;28;20285;-89
2023/04/30 10:31:38;;;;;;;3.00;1.20;;;;;;;;;;5015150;28;20209;-88
2023/04/30 10:34:17;;;;;;;1.75;1.10;;;;;;;;;;5014971;28;20672;-89
2023/04/30 10:36:48;;;;;;;3.00;1.45;;;;;;;;;;5015246;28;20257;-89
2023/04/30 10:39:19;;;;;;;1.30;1.20;;;;;;;;;;5014727;28;20203;-88
2023/04/30 10:41:47;;;;;;;0.80;0.80;;;;;;;;;;5014763;28;20770;-89
2023/04/30 10:44:18;;;;;;;1.73;1.38;;;;;;;;;;5014690;28;20207;-89
2023/04/30 10:46:47;;;;;;;1.50;1.38;;;;;;;;;;5014627;28;20211;-88
2023/04/30 10:49:14;;;;;;;1.60;1.50;;;;;;;;;;5014241;28;20237;-89
2023/04/30 10:51:47;;;;;;;2.25;1.63;;;;;;;;;;5014824;28;20202;-88
2023/04/30 10:54:25;;;;;;;2.90;1.58;;;;;;;;;;5014925;28;20285;-89
2023/04/30 10:56:55;;;;;;;3.47;1.65;;;;;;;;;;5014613;28;20256;-89
2023/04/30 10:59:23;;;;;;;6.45;1.75;;;;;;;;;;5014273;28;20203;-89
2023/04/30 11:01:59;;;;;;;1.80;1.30;;;;;;;;;;5014459;28;20219;-88
2023/04/30 11:04:27;;;;;;;1.27;1.17;;;;;;;;;;5014348;28;20233;-89
2023/04/30 11:07:07;;;;;;;1.50;1.10;;;;;;;;;;5014539;28;20192;-88
2023/04/30 11:09:44;;;;;;;1.40;1.27;;;;;;;;;;5014480;28;20648;-88
2023/04/30 11:12:14;;;;;;;1.02;1.00;;;;;;;;;;5014414;28;20213;-89
2023/04/30 11:14:44;;;;;;;1.92;0.90;;;;;;;;;;5014309;28;20314;-87
2023/04/30 11:17:13;;;;;;;1.60;0.90;;;;;;;;;;5015011;28;20237;-88
2023/04/30 11:19:48;;;;;;;1.25;1.00;;;;;;;;;;5014374;28;20297;-88
2023/04/30 11:22:23;;;;;;;1.33;1.10;;;;;;;;;;5014098;28;20206;-88
2023/04/30 11:25:08;;;;;;;1.30;1.20;;;;;;;;;;5014209;28;20219;-89
2023/04/30 11:27:37;;;;;;;1.00;1.00;;;;;;;;;;5014368;28;20199;-88
2023/04/30 11:30:13;;;;;;;1.35;1.10;;;;;;;;;;5013930;28;20287;-87
2023/04/30 11:32:43;;;;;;;1.33;1.23;;;;;;;;;;5014511;28;20195;-89
2023/04/30 11:35:11;;;;;;;4.03;2.88;;;;;;;;;;5014838;28;20305;-89
2023/04/30 11:37:42;;;;;;;5.97;4.72;;;;;;;;;;5013962;28;20242;-89
2023/04/30 11:40:13;;;;;;;5.43;4.93;;;;;;;;;;5014151;28;20629;-89
2023/04/30 11:42:42;;;;;;;4.57;3.20;;;;;;;;;;5014822;28;20274;-88
2023/04/30 11:45:12;;;;;;;2.58;2.38;;;;;;;;;;5013896;28;20225;-88
2023/04/30 11:47:44;;;;;;;2.15;1.95;;;;;;;;;;5014634;28;20304;-89
2023/04/30 11:50:13;;;;;;;3.00;1.73;;;;;;;;;;5013986;28;20211;-89
2023/04/30 11:52:42;;;;;;;10.63;1.90;;;;;;;;;;5013855;28;20202;-89
2023/04/30 11:55:15;;;;;;;1.30;1.20;;;;;;;;;;5013812;28;20227;-88
2023/04/30 11:57:44;;;;;;;1.73;1.27;;;;;;;;;;5013938;28;20223;-89
2023/04/30 12:00:14;;;;;;;1.40;1.30;;;;;;;;;;5013694;28;20203;-88
2023/04/30 12:02:44;;;;;;;1.30;1.10;;;;;;;;;;5013474;28;20199;-86
2023/04/30 12:05:16;;;;;;;1.30;0.85;;;;;;;;;;5013310;28;20262;-88
2023/04/30 12:07:51;;;;;;;1.25;1.05;;;;;;;;;;5013585;28;20250;-87
2023/04/30 12:10:21;;;;;;;1.33;0.80;;;;;;;;;;5013516;28;20455;-89
2023/04/30 12:12:51;;;;;;;1.38;1.27;;;;;;;;;;5014988;28;20210;-89
2023/04/30 12:15:22;;;;;;;2.35;1.20;;;;;;;;;;5015202;28;20219;-89
2023/04/30 12:17:49;;;;;;;1.20;1.13;;;;;;;;;;5014450;28;20644;-88
2023/04/30 12:20:17;;;;;;;1.75;1.20;;;;;;;;;;5014439;28;20222;-88
2023/04/30 12:22:45;;;;;;;1.50;1.00;;;;;;;;;;5014873;28;20219;-89
2023/04/30 12:25:15;;;;;;;1.23;1.20;;;;;;;;;;5013354;28;20280;-89
2023/04/30 12:27:48;;;;;;;3.13;1.15;;;;;;;;;;5013520;28;20198;-88
2023/04/30 12:30:20;;;;;;;1.05;1.05;;;;;;;;;;5013150;28;20209;-88
2023/04/30 12:32:50;;;;;;;1.23;1.13;;;;;;;;;;5013801;28;20207;-88
2023/04/30 12:35:19;;;;;;;0.98;0.95;;;;;;;;;;5013186;28;20293;-87
2023/04/30 12:37:50;;;;;;;1.23;0.93;;;;;;;;;;5013030;28;20231;-90
2023/04/30 12:40:20;;;;;;;1.85;1.58;;;;;;;;;;5013361;28;20235;-88
2023/04/30 12:42:50;;;;;;;1.25;1.15;;;;;;;;;;5013376;28;20226;-89
2023/04/30 12:45:50;;;;;;;1.30;1.20;;;;;;;;;;5013508;28;20223;-88
2023/04/30 12:48:18;;;;;;;1.13;0.95;;;;;;;;;;5012414;28;20230;-88
2023/04/30 12:50:53;;;;;;;0.90;0.90;;;;;;;;;;5012926;28;20286;-88
2023/04/30 12:53:21;;;;;;;0.80;0.80;;;;;;;;;;5010795;28;20194;-88
2023/04/30 12:56:15;;;;;;;1.08;0.90;;;;;;;;;;5024375;28;20214;-90
2023/04/30 12:58:46;;;;;;;1.17;1.08;;;;;;;;;;5032817;28;20218;-88
2023/04/30 13:01:18;;;;;;;2.15;1.13;;;;;;;;;;5032637;28;20214;-89
2023/04/30 13:03:45;;;;;;;1.20;1.10;;;;;;;;;;5033552;28;20238;-88
2023/04/30 13:06:13;;;;;;;1.00;0.88;;;;;;;;;;5032757;28;20273;-88
2023/04/30 13:08:40;;;;;;;1.25;0.98;;;;;;;;;;5032754;28;20205;-88
2023/04/30 13:11:08;;;;;;;1.30;1.15;;;;;;;;;;5032406;28;20718;-87
2023/04/30 13:13:35;;;;;;;1.55;1.10;;;;;;;;;;5036718;28;20707;-88
2023/04/30 13:16:05;;;;;;;1.25;1.00;;;;;;;;;;5036005;28;20707;-88
2023/04/30 13:18:33;;;;;;;1.38;1.27;;;;;;;;;;5016617;28;20203;-89
2023/04/30 13:21:01;;;;;;;3.38;1.33;;;;;;;;;;5016704;28;20282;-89
2023/04/30 13:23:28;;;;;;;1.25;0.90;;;;;;;;;;5016462;28;20241;-88
2023/04/30 13:25:56;;;;;;;2.65;0.95;;;;;;;;;;5016399;28;20305;-89
2023/04/30 13:28:23;;;;;;;0.80;0.80;;;;;;;;;;5016535;28;20672;-88
2023/04/30 13:30:51;;;;;;;2.45;1.23;;;;;;;;;;5016710;28;20241;-88
2023/04/30 13:33:20;;;;;;;1.60;1.20;;;;;;;;;;5016242;28;20242;-88
2023/04/30 13:35:48;;;;;;;1.55;1.45;;;;;;;;;;5016255;28;20219;-88
2023/04/30 13:38:16;;;;;;;1.30;1.20;;;;;;;;;;5016869;28;20206;-88
2023/04/30 13:40:43;;;;;;;1.92;1.45;;;;;;;;;;5016743;28;20660;-87
2023/04/30 13:43:11;;;;;;;2.08;0.82;;;;;;;;;;5016071;28;20293;-89
2023/04/30 13:45:39;;;;;;;1.33;0.90;;;;;;;;;;5016373;28;20301;-88
2023/04/30 13:48:07;;;;;;;1.02;1.00;;;;;;;;;;5016171;28;20310;-88
2023/04/30 13:50:36;;;;;;;1.70;1.10;;;;;;;;;;5016344;28;20273;-89
2023/04/30 13:53:03;;;;;;;1.58;1.33;;;;;;;;;;5016029;28;20245;-88
2023/04/30 13:55:31;;;;;;;2.33;1.30;;;;;;;;;;5015984;28;20313;-89
2023/04/30 13:57:59;;;;;;;1.67;1.20;;;;;;;;;;5016009;28;20602;-89
2023/04/30 14:00:26;;;;;;;1.80;1.38;;;;;;;;;;5015727;28;20199;-89
2023/04/30 14:02:54;;;;;;;2.05;1.05;;;;;;;;;;5016070;28;20262;-88
2023/04/30 14:05:21;;;;;;;1.45;0.90;;;;;;;;;;5016043;28;20700;-88
2023/04/30 14:07:50;;;;;;;1.20;1.10;;;;;;;;;;5015965;28;20290;-88
2023/04/30 14:10:18;;;;;;;2.40;1.08;;;;;;;;;;5015654;28;20704;-88
2023/04/30 14:12:46;;;;;;;1.40;1.20;;;;;;;;;;5015952;28;20237;-87
2023/04/30 14:15:13;;;;;;;1.70;1.10;;;;;;;;;;5015556;28;20222;-87
2023/04/30 14:17:41;;;;;;;1.23;1.00;;;;;;;;;;5015639;28;20233;-88
2023/04/30 14:20:10;;;;;;;1.13;1.10;;;;;;;;;;5015797;28;20238;-88
2023/04/30 14:22:38;;;;;;;1.17;1.08;;;;;;;;;;5015297;28;20621;-87
2023/04/30 14:25:09;;;;;;;1.88;1.00;;;;;;;;;;5014630;28;20258;-88
2023/04/30 14:27:36;;;;;;;1.88;0.95;;;;;;;;;;5015577;28;20186;-87
2023/04/30 14:30:05;;;;;;;1.00;0.90;;;;;;;;;;5015859;28;20226;-88
2023/04/30 14:32:32;;;;;;;1.38;1.13;;;;;;;;;;5015045;28;20238;-88
2023/04/30 14:35:01;;;;;;;1.42;0.90;;;;;;;;;;5015295;28;20249;-87
2023/04/30 14:37:28;;;;;;;1.23;1.13;;;;;;;;;;5015791;28;20210;-88
2023/04/30 14:39:57;;;;;;;3.33;1.30;;;;;;;;;;5014992;28;20230;-89
2023/04/30 14:42:26;;;;;;;2.05;1.30;;;;;;;;;;5014529;28;20301;-87
2023/04/30 14:44:53;;;;;;;2.95;1.20;;;;;;;;;;5015168;28;20255;-88
2023/04/30 14:47:21;;;;;;;2.08;1.92;;;;;;;;;;5014963;28;20285;-88
2023/04/30 14:49:50;;;;;;;1.38;1.27;;;;;;;;;;5015236;28;20235;-87
2023/04/30 14:52:18;;;;;;;1.50;1.40;;;;;;;;;;5014913;28;20462;-87
2023/04/30 14:54:46;;;;;;;1.67;1.58;;;;;;;;;;5014915;28;20219;-88